createdAt,value
2022-10-19T00:00:47.065Z,80.44
2022-10-19T00:03:15.210Z,80.43
2022-10-19T00:05:43.835Z,80.48
2022-10-19T00:08:11.260Z,80.54
2022-10-19T00:10:40.860Z,80.68
2022-10-19T00:13:08.291Z,80.50
2022-10-19T00:15:39.303Z,80.69
2022-10-19T00:18:08.199Z,80.44
2022-10-19T00:20:36.629Z,80.68
2022-10-19T00:23:04.072Z,80.64
2022-10-19T00:25:31.934Z,80.12
2022-10-19T00:27:59.334Z,80.55
2022-10-19T00:30:26.719Z,80.51
2022-10-19T00:32:54.137Z,80.43
2022-10-19T00:35:22.804Z,80.31
2022-10-19T00:37:50.215Z,80.10
2022-10-19T00:40:17.656Z,80.38
2022-10-19T00:42:45.060Z,80.22
2022-10-19T00:45:14.511Z,80.37
2022-10-19T00:47:42.398Z,80.31
2022-10-19T00:50:10.152Z,80.17
2022-10-19T00:52:38.887Z,80.25
2022-10-19T00:55:07.511Z,79.96
2022-10-19T00:57:34.920Z,79.86
2022-10-19T01:00:02.351Z,80.10
2022-10-19T01:02:29.744Z,79.77
2022-10-19T01:04:57.144Z,79.87
2022-10-19T01:07:24.536Z,79.69
2022-10-19T01:09:53.233Z,79.77
2022-10-19T01:12:49.715Z,79.67
2022-10-19T01:15:22.680Z,79.77
2022-10-19T01:17:56.708Z,79.56
2022-10-19T01:20:33.348Z,79.85
2022-10-19T01:23:22.219Z,79.72
2022-10-19T01:25:55.107Z,79.77
2022-10-19T01:28:33.765Z,79.44
2022-10-19T01:31:03.027Z,79.47
2022-10-19T01:33:35.694Z,79.70
2022-10-19T01:36:07.148Z,79.46
2022-10-19T01:38:37.003Z,79.31
2022-10-19T01:41:10.900Z,79.30
2022-10-19T01:43:40.805Z,79.28
2022-10-19T01:46:11.848Z,79.47
2022-10-19T01:48:40.468Z,79.30
2022-10-19T01:51:09.049Z,79.18
2022-10-19T01:53:40.125Z,79.15
2022-10-19T01:56:07.663Z,79.12
2022-10-19T01:58:36.420Z,79.03
2022-10-19T02:01:05.375Z,79.13
2022-10-19T02:03:34.197Z,78.93
2022-10-19T02:06:01.617Z,78.90
2022-10-19T02:08:29.924Z,79.02
2022-10-19T02:10:57.444Z,79.21
2022-10-19T02:13:24.836Z,78.81
2022-10-19T02:15:53.427Z,78.76
2022-10-19T02:18:22.764Z,78.70
2022-10-19T02:20:51.435Z,78.90
2022-10-19T02:23:20.388Z,79.00
2022-10-19T02:25:47.789Z,78.68
2022-10-19T02:28:15.225Z,78.87
2022-10-19T02:30:42.992Z,78.91
2022-10-19T02:33:12.258Z,78.68
2022-10-19T02:35:39.662Z,78.66
2022-10-19T02:38:08.341Z,78.74
2022-10-19T02:40:38.897Z,78.80
2022-10-19T02:43:07.444Z,78.72
2022-10-19T02:45:37.528Z,78.70
2022-10-19T02:48:06.272Z,78.79
2022-10-19T02:50:33.666Z,78.60
2022-10-19T02:53:01.066Z,78.60
2022-10-19T02:55:30.272Z,78.65
2022-10-19T02:57:58.114Z,78.67
2022-10-19T03:00:25.495Z,78.67
2022-10-19T03:02:52.884Z,78.73
2022-10-19T03:05:20.324Z,78.47
2022-10-19T03:07:47.804Z,78.63
2022-10-19T03:10:15.261Z,78.51
2022-10-19T03:12:43.935Z,78.64
2022-10-19T03:15:11.861Z,78.78
2022-10-19T03:17:39.247Z,78.40
2022-10-19T03:20:07.729Z,78.63
2022-10-19T03:22:35.126Z,78.67
2022-10-19T03:25:02.517Z,78.45
2022-10-19T03:27:29.900Z,78.59
2022-10-19T03:29:58.621Z,78.73
2022-10-19T03:32:26.008Z,78.50
2022-10-19T03:34:53.414Z,78.49
2022-10-19T03:37:20.827Z,78.55
2022-10-19T03:39:48.213Z,78.57
2022-10-19T03:42:15.595Z,78.38
2022-10-19T03:44:42.996Z,78.30
2022-10-19T03:47:11.673Z,78.34
2022-10-19T03:49:40.349Z,78.26
2022-10-19T03:52:09.900Z,78.35
2022-10-19T03:54:37.282Z,78.16
2022-10-19T03:57:04.682Z,78.07
2022-10-19T03:59:32.087Z,78.21
2022-10-19T04:01:59.470Z,77.81
2022-10-19T04:04:28.242Z,78.11
2022-10-19T04:06:55.637Z,77.92
2022-10-19T04:09:23.152Z,77.83
2022-10-19T04:11:50.634Z,77.94
2022-10-19T04:14:27.027Z,77.93
2022-10-19T04:17:00.363Z,78.00
2022-10-19T04:19:29.087Z,77.58
2022-10-19T04:21:56.531Z,77.78
2022-10-19T04:24:23.993Z,77.54
2022-10-19T04:26:52.077Z,77.68
2022-10-19T04:29:21.255Z,77.93
2022-10-19T04:31:49.869Z,77.58
2022-10-19T04:34:17.275Z,77.66
2022-10-19T04:36:46.020Z,77.66
2022-10-19T04:39:13.817Z,77.70
2022-10-19T04:41:41.201Z,77.51
2022-10-19T04:44:08.721Z,77.72
2022-10-19T04:46:37.300Z,77.57
2022-10-19T04:49:06.622Z,77.56
2022-10-19T04:51:34.084Z,77.66
2022-10-19T04:54:02.919Z,77.48
2022-10-19T04:56:35.037Z,77.56
2022-10-19T04:59:02.458Z,77.40
2022-10-19T05:01:31.684Z,77.46
2022-10-19T05:03:59.802Z,77.40
2022-10-19T05:06:27.415Z,77.17
2022-10-19T05:08:54.820Z,77.40
2022-10-19T05:11:23.504Z,77.07
2022-10-19T05:13:50.972Z,77.16
2022-10-19T05:16:19.323Z,77.28
2022-10-19T05:18:48.349Z,77.15
2022-10-19T05:21:15.759Z,77.27
2022-10-19T05:23:43.236Z,76.96
2022-10-19T05:26:11.513Z,77.18
2022-10-19T05:28:40.324Z,76.97
2022-10-19T05:31:09.135Z,77.73
2022-10-19T05:33:36.532Z,77.89
2022-10-19T05:36:15.028Z,77.47
2022-10-19T05:38:42.629Z,77.79
2022-10-19T05:41:10.087Z,77.03
2022-10-19T05:43:37.544Z,77.05
2022-10-19T05:46:07.308Z,77.23
2022-10-19T05:48:34.965Z,77.36
2022-10-19T05:51:02.463Z,77.63
2022-10-19T05:53:29.973Z,77.54
2022-10-19T05:55:57.467Z,77.52
2022-10-19T05:58:24.895Z,77.64
2022-10-19T06:00:53.473Z,77.64
2022-10-19T06:03:22.775Z,77.30
2022-10-19T06:05:50.212Z,77.41
2022-10-19T06:08:17.605Z,76.80
2022-10-19T06:10:45.057Z,76.83
2022-10-19T06:13:12.591Z,76.93
2022-10-19T06:15:40.157Z,76.55
2022-10-19T06:18:09.405Z,76.21
2022-10-19T06:20:38.296Z,76.22
2022-10-19T06:23:05.711Z,76.38
2022-10-19T06:25:33.150Z,76.53
2022-10-19T06:28:00.710Z,76.01
2022-10-19T06:30:28.284Z,76.07
2022-10-19T06:32:55.964Z,75.68
2022-10-19T06:35:23.483Z,75.38
2022-10-19T06:37:52.273Z,75.11
2022-10-19T06:40:19.760Z,75.08
2022-10-19T06:42:47.198Z,74.31
2022-10-19T06:45:14.635Z,73.68
2022-10-19T06:47:42.157Z,73.63
2022-10-19T06:50:10.099Z,73.70
2022-10-19T06:52:37.562Z,73.06
2022-10-19T06:55:07.515Z,73.14
2022-10-19T06:57:35.218Z,72.40
2022-10-19T07:00:03.227Z,72.23
2022-10-19T07:02:30.658Z,71.50
2022-10-19T07:04:58.107Z,71.58
2022-10-19T07:07:25.612Z,71.35
2022-10-19T07:09:53.474Z,70.85
2022-10-19T07:12:22.151Z,71.09
2022-10-19T07:14:49.547Z,71.26
2022-10-19T07:17:16.926Z,70.45
2022-10-19T07:19:44.405Z,70.74
2022-10-19T07:22:15.529Z,70.77
2022-10-19T07:24:46.485Z,71.21
2022-10-19T07:27:14.212Z,70.77
2022-10-19T07:29:42.936Z,71.06
2022-10-19T07:32:10.409Z,70.32
2022-10-19T07:34:37.809Z,70.39
2022-10-19T07:37:05.200Z,70.35
2022-10-19T07:39:32.762Z,70.00
2022-10-19T07:42:00.196Z,69.66
2022-10-19T07:44:27.809Z,69.62
2022-10-19T07:46:56.579Z,69.40
2022-10-19T07:49:24.030Z,69.11
2022-10-19T07:51:53.983Z,68.90
2022-10-19T07:54:22.535Z,69.12
2022-10-19T07:56:50.006Z,68.50
2022-10-19T07:59:17.432Z,68.59
2022-10-19T08:01:45.150Z,68.68
2022-10-19T08:07:01.276Z,71.00
2022-10-19T08:09:51.417Z,70.92
2022-10-19T08:12:16.138Z,67.99
2022-10-19T08:14:43.633Z,67.45
2022-10-19T08:17:11.532Z,67.36
2022-10-19T08:19:43.335Z,67.97
2022-10-19T08:22:11.099Z,67.49
2022-10-19T08:24:38.515Z,67.43
2022-10-19T08:27:06.000Z,66.82
2022-10-19T08:29:33.464Z,67.07
2022-10-19T08:32:00.844Z,66.46
2022-10-19T08:34:28.319Z,66.00
2022-10-19T08:36:56.987Z,66.29
2022-10-19T08:39:24.433Z,65.81
2022-10-19T08:41:56.904Z,65.73
2022-10-19T08:44:31.804Z,66.11
2022-10-19T08:47:02.741Z,66.10
2022-10-19T08:49:31.459Z,66.59
2022-10-19T08:52:01.412Z,67.30
2022-10-19T08:54:33.289Z,66.53
2022-10-19T08:57:04.103Z,66.17
2022-10-19T08:59:33.546Z,65.82
2022-10-19T09:02:02.231Z,65.61
2022-10-19T09:04:30.236Z,64.48
2022-10-19T09:07:24.488Z,65.17
2022-10-19T09:09:53.158Z,65.12
2022-10-19T09:12:22.067Z,66.46
2022-10-19T09:14:54.351Z,66.38
2022-10-19T09:17:21.768Z,66.27
2022-10-19T09:19:49.221Z,66.19
2022-10-19T09:22:18.081Z,66.29
2022-10-19T09:24:48.973Z,66.84
2022-10-19T09:27:18.570Z,67.23
2022-10-19T09:29:48.980Z,67.47
2022-10-19T09:32:19.447Z,67.82
2022-10-19T09:34:47.979Z,68.06
2022-10-19T09:37:23.243Z,68.15
2022-10-19T09:39:55.627Z,68.41
2022-10-19T09:42:24.801Z,67.90
2022-10-19T09:44:52.710Z,68.10
2022-10-19T09:47:29.388Z,68.39
2022-10-19T09:50:07.858Z,68.55
2022-10-19T09:52:39.171Z,68.61
2022-10-19T09:55:11.688Z,69.60
2022-10-19T09:57:42.785Z,69.55
2022-10-19T10:00:18.313Z,69.13
2022-10-19T10:02:49.715Z,69.33
2022-10-19T10:05:17.324Z,69.50
2022-10-19T10:07:44.734Z,69.72
2022-10-19T10:10:20.830Z,68.82
2022-10-19T10:12:48.277Z,69.35
2022-10-19T10:15:16.996Z,69.47
2022-10-19T10:17:45.889Z,69.68
2022-10-19T10:20:24.269Z,68.72
2022-10-19T10:22:57.458Z,68.89
2022-10-19T10:25:30.669Z,68.94
2022-10-19T10:28:00.405Z,69.33
2022-10-19T10:30:28.114Z,69.42
2022-10-19T10:33:00.357Z,69.88
2022-10-19T10:35:36.241Z,69.91
2022-10-19T10:38:12.602Z,69.70
2022-10-19T10:40:41.966Z,69.72
2022-10-19T10:43:10.400Z,69.86
2022-10-19T10:45:39.232Z,69.69
2022-10-19T10:48:24.789Z,69.56
2022-10-19T10:50:52.931Z,69.71
2022-10-19T10:53:33.225Z,69.83
2022-10-19T10:56:01.908Z,69.89
2022-10-19T10:58:35.615Z,69.54
2022-10-19T11:01:16.580Z,68.56
2022-10-19T11:03:47.099Z,68.57
2022-10-19T11:06:14.666Z,69.07
2022-10-19T11:08:45.355Z,68.75
2022-10-19T11:11:15.467Z,69.18
2022-10-19T11:13:44.647Z,69.20
2022-10-19T11:16:13.318Z,69.58
2022-10-19T11:18:42.379Z,69.20
2022-10-19T11:21:11.117Z,69.82
2022-10-19T11:23:43.455Z,69.64
2022-10-19T11:26:30.622Z,70.26
2022-10-19T11:29:06.871Z,70.13
2022-10-19T11:31:39.417Z,69.08
2022-10-19T11:34:09.040Z,69.83
2022-10-19T11:36:43.520Z,69.75
2022-10-19T11:39:22.118Z,69.13
2022-10-19T11:41:55.626Z,69.59
2022-10-19T11:44:27.642Z,69.88
2022-10-19T11:47:01.595Z,69.57
2022-10-19T11:49:36.035Z,69.83
2022-10-19T11:52:06.878Z,69.98
2022-10-19T11:54:43.810Z,69.64
2022-10-19T11:57:13.876Z,69.47
2022-10-19T11:59:51.136Z,70.59
2022-10-19T12:02:32.457Z,70.37
2022-10-19T12:05:00.176Z,70.62
2022-10-19T12:07:37.747Z,70.84
2022-10-19T12:10:11.107Z,71.40
2022-10-19T12:12:40.437Z,71.38
2022-10-19T12:15:19.577Z,71.18
2022-10-19T12:17:48.991Z,71.43
2022-10-19T12:20:20.775Z,71.33
2022-10-19T12:22:48.490Z,71.67
2022-10-19T12:25:15.982Z,70.76
2022-10-19T12:27:46.606Z,70.88
2022-10-19T12:30:15.394Z,71.70
2022-10-19T12:32:53.403Z,71.62
2022-10-19T12:35:28.500Z,70.97
2022-10-19T12:37:57.988Z,71.12
2022-10-19T12:40:28.607Z,71.16
2022-10-19T12:43:01.183Z,71.37
2022-10-19T12:45:30.273Z,70.99
2022-10-19T12:48:20.657Z,71.04
2022-10-19T12:51:05.607Z,71.34
2022-10-19T12:53:36.023Z,71.32
2022-10-19T12:56:03.976Z,71.11
2022-10-19T12:58:35.417Z,71.17
2022-10-19T13:01:04.403Z,71.23
2022-10-19T13:03:32.789Z,71.27
2022-10-19T13:06:00.889Z,71.22
2022-10-19T13:08:29.432Z,71.40
2022-10-19T13:11:07.412Z,71.54
2022-10-19T13:13:57.003Z,71.19
2022-10-19T13:16:33.994Z,71.12
2022-10-19T13:19:05.153Z,70.81
2022-10-19T13:21:52.820Z,70.66
2022-10-19T13:24:34.938Z,71.21
2022-10-19T13:27:28.258Z,71.22
2022-10-19T13:29:57.043Z,71.09
2022-10-19T13:32:37.427Z,71.16
2022-10-19T13:35:36.049Z,70.59
2022-10-19T13:38:26.290Z,70.49
2022-10-19T13:41:02.282Z,69.96
2022-10-19T13:43:30.906Z,69.94
2022-10-19T13:46:04.130Z,69.08
2022-10-19T13:48:36.980Z,69.24
2022-10-19T13:51:06.805Z,69.08
2022-10-19T13:53:39.122Z,68.82
2022-10-19T13:56:19.230Z,68.85
2022-10-19T13:59:13.295Z,67.80
2022-10-19T14:01:48.137Z,69.09
2022-10-19T14:04:20.509Z,68.82
2022-10-19T14:06:48.989Z,69.21
2022-10-19T14:09:29.413Z,69.07
2022-10-19T14:12:04.284Z,69.04
2022-10-19T14:14:31.716Z,69.44
2022-10-19T14:17:03.918Z,69.26
2022-10-19T14:19:32.623Z,69.08
2022-10-19T14:22:01.167Z,69.51
2022-10-19T14:24:30.770Z,69.83
2022-10-19T14:26:58.458Z,69.72
2022-10-19T14:29:25.853Z,69.99
2022-10-19T14:31:53.389Z,70.16
2022-10-19T14:34:22.060Z,70.11
2022-10-19T14:36:49.924Z,69.83
2022-10-19T14:39:25.147Z,70.35
2022-10-19T14:41:54.467Z,70.16
2022-10-19T14:44:37.332Z,70.53
2022-10-19T14:47:08.054Z,70.46
2022-10-19T14:49:36.745Z,70.82
2022-10-19T14:52:04.213Z,70.43
2022-10-19T14:54:33.044Z,70.54
2022-10-19T14:57:02.002Z,70.82
2022-10-19T14:59:30.945Z,70.97
2022-10-19T15:01:59.399Z,71.00
2022-10-19T15:04:29.030Z,70.98
2022-10-19T15:06:57.741Z,71.03
2022-10-19T15:09:37.072Z,70.96
2022-10-19T15:12:06.683Z,71.47
2022-10-19T15:14:34.114Z,71.48
2022-10-19T15:17:01.838Z,71.48
2022-10-19T15:19:30.092Z,71.40
2022-10-19T15:22:15.525Z,71.75
2022-10-19T15:24:56.399Z,71.83
2022-10-19T15:27:29.173Z,71.66
2022-10-19T15:29:56.914Z,71.81
2022-10-19T15:32:25.500Z,71.65
2022-10-19T15:34:52.896Z,71.99
2022-10-19T15:37:22.765Z,71.69
2022-10-19T15:39:50.343Z,72.05
2022-10-19T15:42:36.708Z,72.06
2022-10-19T15:45:04.623Z,71.87
2022-10-19T15:47:32.311Z,71.93
2022-10-19T15:50:00.939Z,71.98
2022-10-19T15:52:30.086Z,71.80
2022-10-19T15:54:58.414Z,71.49
2022-10-19T15:57:28.694Z,71.66
2022-10-19T15:59:56.567Z,71.38
2022-10-19T16:02:25.022Z,72.16
2022-10-19T16:04:53.106Z,71.41
2022-10-19T16:07:22.906Z,71.70
2022-10-19T16:09:51.592Z,71.41
2022-10-19T16:12:19.028Z,71.34
2022-10-19T16:14:46.485Z,71.58
2022-10-19T16:17:14.075Z,71.11
2022-10-19T16:19:41.469Z,71.51
2022-10-19T16:22:08.869Z,71.60
2022-10-19T16:24:36.260Z,71.51
2022-10-19T16:27:05.168Z,71.62
2022-10-19T16:29:32.632Z,71.74
2022-10-19T16:32:00.108Z,71.70
2022-10-19T16:34:27.522Z,71.46
2022-10-19T16:36:54.977Z,71.44
2022-10-19T16:39:25.326Z,71.62
2022-10-19T16:41:52.781Z,71.88
2022-10-19T16:44:22.579Z,71.68
2022-10-19T16:46:50.045Z,71.71
2022-10-19T16:49:17.472Z,71.86
2022-10-19T16:51:44.881Z,71.78
2022-10-19T16:54:12.441Z,71.82
2022-10-19T16:56:44.485Z,71.85
2022-10-19T16:59:12.368Z,71.91
2022-10-19T17:01:41.182Z,72.01
2022-10-19T17:04:08.625Z,72.10
2022-10-19T17:06:36.027Z,71.67
2022-10-19T17:11:51.164Z,71.99
2022-10-19T17:14:18.561Z,72.11
2022-10-19T17:16:47.278Z,72.00
2022-10-19T17:19:14.653Z,72.15
2022-10-19T17:21:42.331Z,71.93
2022-10-19T17:24:18.463Z,72.38
2022-10-19T17:26:49.065Z,72.24
2022-10-19T17:29:16.468Z,72.26
2022-10-19T17:31:43.873Z,72.30
2022-10-19T17:34:12.578Z,72.24
2022-10-19T17:39:14.463Z,72.14
2022-10-19T17:41:41.850Z,72.05
2022-10-19T17:44:09.270Z,72.17
2022-10-19T17:46:36.705Z,72.17
2022-10-19T17:49:04.128Z,72.30
2022-10-19T17:51:34.517Z,72.13
2022-10-19T17:54:02.644Z,72.34
2022-10-19T17:56:30.064Z,72.57
2022-10-19T17:58:57.717Z,72.23
2022-10-19T18:01:25.114Z,72.25
2022-10-19T18:03:52.499Z,73.17
2022-10-19T18:06:20.706Z,73.22
2022-10-19T18:08:50.390Z,73.56
2022-10-19T18:11:19.138Z,73.30
2022-10-19T18:13:46.653Z,73.38
2022-10-19T18:16:14.946Z,73.48
2022-10-19T18:18:43.129Z,73.70
2022-10-19T18:21:11.429Z,73.25
2022-10-19T18:23:38.883Z,73.48
2022-10-19T18:26:08.575Z,73.39
2022-10-19T18:28:36.085Z,73.20
2022-10-19T18:31:07.391Z,73.30
2022-10-19T18:33:34.802Z,73.33
2022-10-19T18:36:02.199Z,73.42
2022-10-19T18:38:29.734Z,73.15
2022-10-19T18:40:57.233Z,73.35
2022-10-19T18:43:26.016Z,72.94
2022-10-19T18:45:53.504Z,73.24
2022-10-19T18:48:20.947Z,72.84
2022-10-19T18:50:48.421Z,72.93
2022-10-19T18:53:15.887Z,72.92
2022-10-19T18:55:43.332Z,72.57
2022-10-19T18:58:10.950Z,72.81
2022-10-19T19:00:43.430Z,72.69
2022-10-19T19:03:13.085Z,72.89
2022-10-19T19:05:40.478Z,72.67
2022-10-19T19:08:07.883Z,72.71
2022-10-19T19:10:35.354Z,72.68
2022-10-19T19:13:02.769Z,73.00
2022-10-19T19:15:30.184Z,72.71
2022-10-19T19:17:58.875Z,72.54
2022-10-19T19:20:26.300Z,72.84
2022-10-19T19:22:53.716Z,72.48
2022-10-19T19:25:21.120Z,72.44
2022-10-19T19:27:48.526Z,72.43
2022-10-19T19:30:15.962Z,72.41
2022-10-19T19:32:43.382Z,72.67
2022-10-19T19:35:12.093Z,72.31
2022-10-19T19:37:39.476Z,72.32
2022-10-19T19:40:08.003Z,72.13
2022-10-19T19:42:35.396Z,72.08
2022-10-19T19:47:30.020Z,71.90
2022-10-19T19:52:26.011Z,72.04
2022-10-19T19:54:53.427Z,72.18
2022-10-19T19:57:20.971Z,71.89
2022-10-19T19:59:48.409Z,71.90
2022-10-19T20:04:44.041Z,72.00
2022-10-19T20:07:11.488Z,72.06
2022-10-19T20:09:40.177Z,72.15
2022-10-19T20:12:07.574Z,72.04
2022-10-19T20:14:35.023Z,72.80
2022-10-19T20:17:02.430Z,72.04
2022-10-19T20:19:29.816Z,72.10
2022-10-19T20:21:59.058Z,72.08
2022-10-19T20:24:26.446Z,72.32
2022-10-19T20:26:55.776Z,72.12
2022-10-19T20:29:23.224Z,71.97
2022-10-19T20:31:50.624Z,72.63
2022-10-19T20:34:26.717Z,72.45
2022-10-19T20:36:54.288Z,72.08
2022-10-19T20:39:21.875Z,71.89
2022-10-19T20:41:49.274Z,71.85
2022-10-19T20:46:45.300Z,71.67
2022-10-19T20:49:12.858Z,71.72
2022-10-19T20:51:40.248Z,71.96
2022-10-19T20:54:08.364Z,71.97
2022-10-19T20:59:04.436Z,72.00
2022-10-19T21:01:33.738Z,71.91
2022-10-19T21:04:03.193Z,71.97
2022-10-19T21:06:31.938Z,71.72
2022-10-19T21:08:59.486Z,71.94
2022-10-19T21:11:27.682Z,71.70
2022-10-19T21:13:55.614Z,71.55
2022-10-19T21:16:23.786Z,71.43
2022-10-19T21:18:52.467Z,71.35
2022-10-19T21:21:21.174Z,71.17
2022-10-19T21:23:49.469Z,71.50
2022-10-19T21:26:17.141Z,71.17
2022-10-19T21:28:46.596Z,71.27
2022-10-19T21:31:14.001Z,71.35
2022-10-19T21:33:41.447Z,71.40
2022-10-19T21:36:10.375Z,71.29
2022-10-19T21:38:37.804Z,71.64
2022-10-19T21:41:09.408Z,71.35
2022-10-19T21:43:36.874Z,71.16
2022-10-19T21:46:04.479Z,71.28
2022-10-19T21:48:31.969Z,71.20
2022-10-19T21:50:59.402Z,71.25
2022-10-19T21:53:28.083Z,71.05
2022-10-19T21:55:55.478Z,71.26
2022-10-19T21:58:22.913Z,71.03
2022-10-19T22:00:50.361Z,70.84
2022-10-19T22:03:18.522Z,70.83
2022-10-19T22:05:50.832Z,71.52
2022-10-19T22:08:19.471Z,71.29
2022-10-19T22:10:48.256Z,71.12
2022-10-19T22:13:15.635Z,71.57
2022-10-19T22:15:43.152Z,71.43
2022-10-19T22:18:10.537Z,71.56
2022-10-19T22:20:38.132Z,71.68
2022-10-19T22:23:05.733Z,71.85
2022-10-19T22:25:33.167Z,71.48
2022-10-19T22:28:01.992Z,71.67
2022-10-19T22:30:29.418Z,71.68
2022-10-19T22:32:56.870Z,71.68
2022-10-19T22:35:24.256Z,71.67
2022-10-19T22:37:51.646Z,71.68
2022-10-19T22:40:19.068Z,72.02
2022-10-19T22:42:46.526Z,71.88
2022-10-19T22:45:15.533Z,72.28
2022-10-19T22:47:43.018Z,72.45
2022-10-19T22:50:11.708Z,72.18
2022-10-19T22:52:39.498Z,72.20
2022-10-19T22:55:07.382Z,72.13
2022-10-19T22:57:34.852Z,72.48
2022-10-19T23:00:02.335Z,72.30
2022-10-19T23:02:31.464Z,72.41
2022-10-19T23:04:58.962Z,73.03
2022-10-19T23:07:26.442Z,72.87
2022-10-19T23:09:53.908Z,73.37
2022-10-19T23:12:21.546Z,73.35
2022-10-19T23:14:49.047Z,72.95
2022-10-19T23:17:16.516Z,73.33
2022-10-19T23:19:46.108Z,73.25
2022-10-19T23:22:13.524Z,73.28
2022-10-19T23:24:40.992Z,73.04
2022-10-19T23:27:08.475Z,72.94
2022-10-19T23:29:35.958Z,73.27
2022-10-19T23:32:03.448Z,73.30
2022-10-19T23:34:30.990Z,73.30
2022-10-19T23:36:59.849Z,73.44
2022-10-19T23:39:27.268Z,73.36
2022-10-19T23:41:54.670Z,73.84
2022-10-19T23:44:22.051Z,73.57
2022-10-19T23:46:50.280Z,73.68
2022-10-19T23:49:17.672Z,73.80
2022-10-19T23:51:45.047Z,73.75
2022-10-19T23:54:15.008Z,73.82
2022-10-19T23:56:42.603Z,73.63
2022-10-19T23:59:10.352Z,73.34
